Time;durP1;ratioP1;P1;durP2;ratioP2;P2;SDS_P1;SDS_P2;PMS_P1;PMS_P2;Temp;Humidity;BMP_temperature;BMP_pressure;BME280_temperature;BME280_humidity;BME280_pressure;Samples;Min_cycle;Max_cycle;Signal;HPM_P1;HPM_P2
2021/03/19 04:51:53;;;;;;;10.93;9.30;;;;;;;2.41;100.00;101163.77;1918925;74;23412;-81
2021/03/19 04:54:24;;;;;;;14.05;10.15;;;;;;;2.37;100.00;101162.15;1888694;75;21521;-81
2021/03/19 04:56:52;;;;;;;14.68;10.75;;;;;;;2.42;100.00;101164.61;1884341;75;21895;-82
2021/03/19 04:59:21;;;;;;;14.98;10.75;;;;;;;2.45;100.00;101159.41;1885176;75;21145;-82
2021/03/19 05:01:58;;;;;;;13.70;9.70;;;;;;;2.48;100.00;101163.17;1886051;75;21711;-83
2021/03/19 05:04:29;;;;;;;17.80;11.12;;;;;;;2.47;99.90;101166.61;1885450;75;21878;-83
2021/03/19 05:07:03;;;;;;;14.83;10.50;;;;;;;2.50;99.77;101169.09;1883542;75;21141;-80
2021/03/19 05:09:32;;;;;;;13.98;10.68;;;;;;;2.52;99.69;101168.64;1884507;75;22033;-81
2021/03/19 05:12:08;;;;;;;14.20;10.32;;;;;;;2.54;99.59;101168.14;1885489;75;21557;-82
2021/03/19 05:14:37;;;;;;;13.95;9.88;;;;;;;2.56;99.50;101167.66;1886379;75;21589;-80
2021/03/19 05:17:11;;;;;;;16.35;11.18;;;;;;;2.63;99.47;101173.03;1886633;75;21545;-82
2021/03/19 05:19:40;;;;;;;16.37;11.63;;;;;;;2.68;99.38;101180.62;1884422;75;21674;-82
2021/03/19 05:22:09;;;;;;;17.27;11.95;;;;;;;2.70;99.15;101172.00;1886185;75;21856;-82
2021/03/19 05:24:42;;;;;;;17.15;12.65;;;;;;;2.75;99.05;101177.84;1883807;75;21576;-82
2021/03/19 05:27:12;;;;;;;18.77;12.13;;;;;;;2.79;98.82;101173.05;1884640;75;21662;-81
2021/03/19 05:29:40;;;;;;;16.27;12.47;;;;;;;2.86;98.74;101177.57;1884037;75;21564;-83
2021/03/19 05:32:14;;;;;;;17.42;12.93;;;;;;;2.93;98.62;101171.41;1882510;75;21572;-82
2021/03/19 05:34:43;;;;;;;18.35;13.18;;;;;;;2.98;98.34;101169.12;1887585;75;21912;-84
2021/03/19 05:37:12;;;;;;;17.20;12.43;;;;;;;3.03;98.08;101171.09;1886403;75;21457;-82
2021/03/19 05:39:43;;;;;;;14.98;11.10;;;;;;;3.07;97.76;101169.30;1884977;75;21533;-84
2021/03/19 05:42:34;;;;;;;10.88;9.23;;;;;;;3.10;97.60;101161.52;1890588;75;21030;-85
2021/03/19 05:45:27;;;;;;;15.25;11.20;;;;;;;3.13;97.43;101157.59;1860196;75;21173;-85
2021/03/19 05:48:05;;;;;;;44.63;27.15;;;;;;;3.20;97.60;101156.11;1879927;75;21219;-85
2021/03/19 05:50:36;;;;;;;57.48;33.42;;;;;;;3.28;97.48;101153.34;1878983;75;21142;-85
2021/03/19 05:53:15;;;;;;;47.80;28.75;;;;;;;3.29;97.19;101160.59;1873529;76;21573;-84
2021/03/19 05:55:48;;;;;;;33.45;20.65;;;;;;;3.29;97.02;101160.59;1873596;76;21467;-84
2021/03/19 05:58:27;;;;;;;23.00;16.50;;;;;;;3.28;96.88;101164.88;1875728;76;21058;-84
2021/03/19 06:00:58;;;;;;;34.05;21.23;;;;;;;3.28;96.75;101165.31;1879623;76;21553;-84
2021/03/19 06:03:30;;;;;;;33.30;19.77;;;;;;;3.30;96.83;101160.53;1878042;76;21094;-83
2021/03/19 06:06:07;;;;;;;41.55;21.10;;;;;;;3.35;96.99;101161.70;1876583;76;20928;-84
2021/03/19 06:08:45;;;;;;;;;;;;;;;3.36;97.16;101164.21;1880919;76;21043;-83
2021/03/19 06:11:24;;;;;;;20.08;12.30;;;;;;;3.37;97.29;101165.90;1876543;75;20228;-83
2021/03/19 06:14:02;;;;;;;15.72;10.72;;;;;;;3.41;97.48;101174.35;1874533;76;21872;-83
2021/03/19 06:16:45;;;;;;;16.95;12.88;;;;;;;3.45;97.47;101181.90;1871960;76;21519;-83
2021/03/19 06:19:50;;;;;;;17.07;12.40;;;;;;;3.53;97.24;101186.83;1875285;76;21541;-83
2021/03/19 06:22:36;;;;;;;17.85;12.23;;;;;;;3.60;96.81;101184.48;1874306;76;21177;-86
2021/03/19 06:25:25;;;;;;;21.62;13.28;;;;;;;3.74;96.46;101192.61;1873106;76;21562;-85
2021/03/19 06:28:29;;;;;;;17.37;12.40;;;;;;;3.85;95.80;101194.86;1873298;75;21546;-82
2021/03/19 06:31:31;;;;;;;14.25;10.88;;;;;;;4.08;94.72;101199.72;1810358;77;23234;-83
2021/03/19 06:34:15;;;;;;;14.90;11.28;;;;;;;4.18;94.01;101201.56;1747582;81;21168;-84
2021/03/19 06:37:05;;;;;;;13.22;9.73;;;;;;;4.34;93.69;101203.20;1759791;81;21827;-83
2021/03/19 06:39:50;;;;;;;10.68;9.20;;;;;;;4.44;92.89;101204.12;1746792;81;21504;-84
2021/03/19 06:42:24;;;;;;;14.73;10.45;;;;;;;4.57;92.13;101201.98;1755918;81;21144;-84
2021/03/19 06:45:20;;;;;;;41.88;23.32;;;;;;;4.65;91.37;101197.02;1746852;81;21493;-85
2021/03/19 06:47:57;;;;;;;29.48;18.23;;;;;;;4.75;90.97;101200.12;1758060;81;21678;-85
2021/03/19 06:50:42;;;;;;;15.80;12.05;;;;;;;4.82;89.97;101200.28;1746905;81;21900;-84
2021/03/19 06:53:26;;;;;;;12.95;9.95;;;;;;;4.86;89.40;101198.45;1756533;81;21584;-83
2021/03/19 06:55:57;;;;;;;12.90;9.35;;;;;;;4.95;89.27;101190.41;1746780;81;21552;-83
2021/03/19 06:58:40;;;;;;;12.82;10.68;;;;;;;5.05;88.75;101195.64;1728689;81;21219;-85
2021/03/19 07:01:32;;;;;;;12.15;10.78;;;;;;;5.12;88.24;101193.26;1710174;81;21682;-83
2021/03/19 07:04:42;;;;;;;14.53;11.57;;;;;;;5.21;87.66;101196.34;1735894;80;22029;-83
2021/03/19 07:07:33;;;;;;;13.25;10.85;;;;;;;5.24;87.01;101198.81;1757594;81;21183;-84
2021/03/19 07:10:29;;;;;;;15.28;10.98;;;;;;;5.30;87.12;101205.46;1757114;81;21255;-84
2021/03/19 07:13:28;;;;;;;11.68;10.48;;;;;;;5.39;86.78;101201.30;1753208;81;21563;-81
2021/03/19 07:16:37;;;;;;;14.00;11.03;;;;;;;5.49;86.35;101198.75;1729271;81;21132;-83
2021/03/19 07:19:42;;;;;;;12.55;10.35;;;;;;;5.63;86.12;101192.66;1746313;81;21607;-82
2021/03/19 07:22:49;;;;;;;11.83;9.30;;;;;;;5.81;84.80;101191.12;1708029;81;21758;-82
2021/03/19 07:25:35;;;;;;;11.65;9.73;;;;;;;5.99;83.91;101184.48;1725656;82;21714;-83
2021/03/19 07:28:19;;;;;;;12.13;10.45;;;;;;;6.18;82.98;101195.74;1725725;82;21560;-84
2021/03/19 07:31:14;;;;;;;13.10;10.18;;;;;;;6.15;82.17;101189.42;1699443;82;21642;-82
2021/03/19 07:34:23;;;;;;;11.63;10.08;;;;;;;6.11;81.73;101188.70;1687566;84;21770;-81
2021/03/19 07:37:29;;;;;;;10.98;9.80;;;;;;;6.10;80.96;101192.17;1685885;84;22424;-81
2021/03/19 07:40:11;;;;;;;8.68;7.58;;;;;;;6.07;81.68;101192.73;1688016;84;21156;-83
2021/03/19 07:43:28;;;;;;;10.10;8.88;;;;;;;6.02;80.94;101194.22;1687396;84;21564;-82
2021/03/19 07:46:23;;;;;;;11.68;9.40;;;;;;;5.91;80.17;101195.51;1715264;83;21592;-84
2021/03/19 07:49:17;;;;;;;10.72;9.38;;;;;;;5.88;80.33;101195.19;1716675;83;21504;-82
2021/03/19 07:52:16;;;;;;;11.12;9.75;;;;;;;5.91;80.36;101196.35;1688759;84;21231;-82
2021/03/19 07:54:55;;;;;;;10.88;9.45;;;;;;;5.97;80.84;101201.27;1689970;84;21535;-83
2021/03/19 07:57:36;;;;;;;12.00;10.08;;;;;;;6.09;80.82;101199.97;1688026;83;21601;-84
2021/03/19 08:00:23;;;;;;;12.20;10.72;;;;;;;6.09;80.30;101199.53;1687882;83;21605;-83
2021/03/19 08:03:14;;;;;;;11.93;9.35;;;;;;;6.02;79.62;101193.37;1697087;83;21907;-84
2021/03/19 08:05:51;;;;;;;10.40;9.38;;;;;;;6.03;78.98;101193.30;1716203;83;21226;-82
2021/03/19 08:09:07;;;;;;;10.40;9.30;;;;;;;5.98;78.56;101187.94;1714795;83;21567;-84
2021/03/19 08:12:05;;;;;;;10.98;9.65;;;;;;;6.01;78.77;101189.95;1708526;83;21239;-84
2021/03/19 08:15:42;;;;;;;11.90;9.80;;;;;;;6.05;78.67;101198.41;1687371;83;21148;-88
2021/03/19 08:18:38;;;;;;;13.43;8.00;;;;;;;6.11;78.38;101190.44;1632064;84;21619;-84
2021/03/19 08:21:24;;;;;;;13.15;9.28;;;;;;;6.05;77.50;101192.81;1687749;84;21236;-84
2021/03/19 08:24:36;;;;;;;11.03;8.78;;;;;;;5.98;77.55;101203.39;1687493;84;21658;-83
2021/03/19 08:28:05;;;;;;;8.98;8.08;;;;;;;5.95;77.67;101202.23;1687881;83;23234;-83
2021/03/19 08:31:05;;;;;;;8.98;8.00;;;;;;;5.97;77.94;101203.84;1713195;81;21658;-85
2021/03/19 08:34:25;;;;;;;9.48;8.43;;;;;;;5.97;77.48;101194.83;1826426;76;23017;-83
2021/03/19 08:36:56;;;;;;;9.43;8.53;;;;;;;5.91;77.51;101205.37;1807538;77;21552;-84
2021/03/19 08:39:49;;;;;;;9.65;8.05;;;;;;;5.92;77.29;101212.20;1804709;77;21810;-84
2021/03/19 08:42:51;;;;;;;10.95;9.03;;;;;;;5.98;77.40;101214.99;1825329;77;21480;-82
2021/03/19 08:45:29;;;;;;;16.75;12.95;;;;;;;6.03;77.14;101206.17;1805308;77;21197;-83
2021/03/19 08:48:06;;;;;;;14.00;11.28;;;;;;;6.09;76.85;101204.69;1782950;79;21191;-83
2021/03/19 08:50:40;;;;;;;14.23;11.75;;;;;;;6.16;76.75;101209.12;1778875;79;21698;-84
2021/03/19 08:57:42;;;;;;;10.43;9.38;;;;;;;6.25;76.60;101219.91;1800448;79;21520;-83
2021/03/19 09:04:14;;;;;;;11.95;9.08;;;;;;;6.19;75.58;101216.76;1785294;79;21188;-85
2021/03/19 09:07:41;;;;;;;16.62;12.23;;;;;;;6.22;75.84;101223.08;1821173;77;21718;-86
2021/03/19 09:10:32;;;;;;;10.80;9.70;;;;;;;6.13;75.06;101219.09;1836174;77;21371;-85
2021/03/19 09:13:10;;;;;;;18.40;13.65;;;;;;;6.04;75.20;101226.34;1813454;77;21560;-83
2021/03/19 09:15:45;;;;;;;39.45;30.65;;;;;;;5.95;76.03;101225.41;1801467;77;21785;-79
2021/03/19 09:18:46;;;;;;;21.85;18.75;;;;;;;5.92;76.32;101225.53;1803154;79;21201;-83
2021/03/19 09:25:24;;;;;;;31.02;22.62;;;;;;;5.64;77.49;101221.39;1802730;77;21871;-82
2021/03/19 09:35:58;;;;;;;19.77;14.65;;;;;;;5.39;80.98;101220.60;1836509;76;21644;-83
2021/03/19 09:38:32;;;;;;;24.72;16.17;;;;;;;5.43;81.86;101220.86;1866715;76;21646;-83
2021/03/19 09:41:05;;;;;;;15.90;12.63;;;;;;;5.62;81.91;101214.59;1837939;76;22100;-85
2021/03/19 09:43:50;;;;;;;;;;;;;;;5.80;81.30;101220.37;1840785;77;21192;-84
2021/03/19 09:46:30;;;;;;;14.68;11.55;;;;;;;5.82;80.56;101214.70;1834922;76;20508;-83
2021/03/19 09:53:39;;;;;;;20.43;15.63;;;;;;;5.92;79.90;101208.78;1856245;76;21631;-81
2021/03/19 09:56:25;;;;;;;12.55;10.90;;;;;;;6.06;79.36;101209.92;1832232;77;22004;-83
2021/03/19 09:58:56;;;;;;;11.65;10.48;;;;;;;6.05;79.78;101212.58;1842567;76;21223;-82
2021/03/19 10:05:40;;;;;;;14.90;11.85;;;;;;;6.14;78.63;101209.64;1849048;76;21164;-82
2021/03/19 10:08:26;;;;;;;11.50;9.95;;;;;;;6.27;78.21;101212.13;1830967;76;21655;-84
2021/03/19 10:11:05;;;;;;;12.05;10.40;;;;;;;6.29;77.99;101209.03;1811494;76;21922;-80
2021/03/19 10:13:54;;;;;;;23.65;20.15;;;;;;;6.27;77.30;101213.41;1868535;76;21151;-84
2021/03/19 10:16:26;;;;;;;18.92;16.70;;;;;;;6.29;77.47;101215.47;1871795;76;21973;-87
2021/03/19 10:18:57;;;;;;;14.20;12.28;;;;;;;6.31;77.48;101215.83;1874057;76;21068;-85
2021/03/19 10:21:41;;;;;;;13.28;10.68;;;;;;;6.34;76.94;101214.41;1868634;76;21148;-86
2021/03/19 10:24:09;;;;;;;16.25;12.70;;;;;;;6.28;76.45;101219.81;1837043;76;22001;-84
2021/03/19 10:26:51;;;;;;;17.73;13.55;;;;;;;6.28;76.19;101213.81;1861016;76;21264;-83
2021/03/19 10:29:36;;;;;;;11.50;10.30;;;;;;;6.37;76.20;101206.55;1857327;76;21470;-84
2021/03/19 10:32:15;;;;;;;38.00;28.02;;;;;;;6.60;76.02;101209.95;1839876;76;21573;-84
2021/03/19 10:35:00;;;;;;;17.10;13.75;;;;;;;6.81;75.44;101207.31;1836798;77;21144;-85
2021/03/19 10:37:46;;;;;;;11.33;10.08;;;;;;;6.98;74.24;101203.19;1831509;77;21149;-82
2021/03/19 10:40:37;;;;;;;13.03;11.38;;;;;;;7.22;73.64;101199.09;1830471;77;21200;-83
2021/03/19 10:43:19;;;;;;;11.30;9.75;;;;;;;7.61;71.31;101190.03;1802376;77;21526;-83
2021/03/19 10:54:33;;;;;;;8.50;7.30;;;;;;;9.62;62.91;101178.30;1827804;76;20899;-84
2021/03/19 10:57:36;;;;;;;12.35;11.05;;;;;;;9.29;61.73;101188.23;1808494;76;21516;-80
2021/03/19 11:03:50;;;;;;;6.08;5.47;;;;;;;9.39;61.43;101179.06;1883757;74;22674;-84
2021/03/19 11:06:43;;;;;;;7.33;5.42;;;;;;;9.30;60.20;101189.06;1752675;81;21650;-88
2021/03/19 11:09:32;;;;;;;12.13;6.10;;;;;;;9.03;60.33;101182.26;1775155;80;21513;-81
2021/03/19 11:12:21;;;;;;;10.53;5.62;;;;;;;8.84;60.71;101183.66;1775449;79;21596;-85
2021/03/19 11:14:59;;;;;;;6.28;4.72;;;;;;;8.71;61.71;101181.78;1764609;79;21065;-79
2021/03/19 11:17:29;;;;;;;5.72;5.15;;;;;;;8.63;60.79;101178.27;1804380;79;21631;-82
2021/03/19 11:20:13;;;;;;;31.70;7.17;;;;;;;8.34;61.72;101181.45;1775988;80;21187;-84
2021/03/19 11:22:46;;;;;;;15.15;6.30;;;;;;;8.29;62.59;101183.43;1796705;77;21774;-84
2021/03/19 11:25:46;;;;;;;14.63;6.58;;;;;;;8.26;62.79;101179.22;1806492;78;21177;-81
2021/03/19 11:43:40;;;;;;;8.50;6.28;;;;;;;7.26;64.79;101194.64;1816253;77;21124;-80
2021/03/19 11:46:09;;;;;;;8.03;6.72;;;;;;;7.03;65.55;101185.30;1777937;79;21494;-83
2021/03/19 11:48:41;;;;;;;7.12;5.85;;;;;;;6.90;66.28;101199.19;1774450;79;21848;-82
2021/03/19 11:55:21;;;;;;;12.03;8.45;;;;;;;6.72;67.34;101198.67;1765533;78;21144;-82
2021/03/19 11:57:52;;;;;;;11.35;8.80;;;;;;;6.60;67.44;101202.21;1767922;78;21070;-85
2021/03/19 12:04:55;;;;;;;10.35;7.17;;;;;;;6.47;68.80;101209.61;1742270;80;21683;-79
2021/03/19 12:07:25;;;;;;;13.25;8.18;;;;;;;6.39;69.53;101212.48;1749137;79;21585;-82
2021/03/19 12:09:54;;;;;;;11.65;8.78;;;;;;;6.52;70.17;101214.11;1780548;79;21954;-82
2021/03/19 12:12:28;;;;;;;10.53;8.35;;;;;;;6.60;70.29;101212.08;1799744;79;20947;-80
2021/03/19 12:15:06;;;;;;;30.62;24.63;;;;;;;6.63;69.65;101204.22;1729444;82;21558;-82
2021/03/19 12:17:35;;;;;;;36.17;26.97;;;;;;;6.87;69.47;101203.63;1728764;82;21784;-84
2021/03/19 12:20:05;;;;;;;29.23;21.07;;;;;;;7.41;68.54;101199.12;1729239;81;21230;-84
2021/03/19 12:22:33;;;;;;;10.60;8.65;;;;;;;8.56;66.41;101199.33;1725997;81;21758;-86
2021/03/19 12:29:13;;;;;;;4.90;4.40;;;;;;;11.13;57.81;101184.75;1798483;79;21700;-83
2021/03/19 12:32:24;;;;;;;4.85;4.35;;;;;;;12.39;51.30;101172.05;1795863;79;21529;-85
2021/03/19 12:34:53;;;;;;;4.40;3.72;;;;;;;12.35;49.36;101177.92;1765638;80;21179;-83
2021/03/19 12:37:22;;;;;;;4.12;3.72;;;;;;;11.71;49.00;101176.48;1768508;80;21834;-82
2021/03/19 12:44:02;;;;;;;4.95;4.05;;;;;;;11.84;48.56;101174.29;1780459;79;21462;-82
2021/03/19 12:50:40;;;;;;;9.45;5.08;;;;;;;11.93;47.81;101173.73;1795430;79;21655;-84
2021/03/19 12:53:13;;;;;;;5.28;4.75;;;;;;;11.47;48.56;101183.52;1794963;78;22008;-83
2021/03/19 13:03:51;;;;;;;9.53;5.78;;;;;;;10.76;51.99;101177.44;1702715;83;21624;-84
2021/03/19 13:06:22;;;;;;;27.52;21.97;;;;;;;11.24;49.18;101185.38;1702061;83;21058;-80
2021/03/19 13:13:02;;;;;;;6.58;5.80;;;;;;;10.02;50.71;101185.11;1704472;83;21659;-81
2021/03/19 13:23:36;;;;;;;5.25;4.60;;;;;;;8.16;57.47;101192.64;1701534;83;21505;-82
2021/03/19 13:30:22;;;;;;;7.40;5.80;;;;;;;7.86;59.33;101197.49;1712459;83;21561;-83
2021/03/19 13:32:59;;;;;;;6.25;5.60;;;;;;;7.66;59.61;101191.94;1752804;81;21187;-83
2021/03/19 13:35:37;;;;;;;8.90;6.45;;;;;;;7.56;60.56;101188.12;1749645;81;21674;-83
2021/03/19 13:38:10;;;;;;;7.00;6.03;;;;;;;7.54;61.15;101193.80;1752419;80;21099;-83
2021/03/19 13:40:45;;;;;;;11.53;6.00;;;;;;;7.50;61.90;101189.66;1750418;81;22001;-82
2021/03/19 13:43:27;;;;;;;17.73;11.20;;;;;;;7.47;62.58;101191.58;1750488;81;21254;-83
2021/03/19 13:54:17;;;;;;;15.13;11.05;;;;;;;7.21;63.75;101205.15;1752191;81;21159;-80
2021/03/19 14:01:20;;;;;;;15.23;10.70;;;;;;;7.43;64.59;101206.36;1749390;80;21715;-80
2021/03/19 14:11:08;;;;;;;7.83;6.50;;;;;;;7.80;63.54;101200.36;1696541;84;21078;-83
2021/03/19 14:13:42;;;;;;;11.50;6.75;;;;;;;7.58;64.26;101196.63;1694246;83;21890;-82
2021/03/19 14:16:11;;;;;;;12.98;7.30;;;;;;;7.56;64.61;101194.58;1696002;83;21069;-85
2021/03/19 14:18:40;;;;;;;8.85;6.62;;;;;;;7.53;65.02;101190.81;1694345;84;21600;-83
2021/03/19 14:21:10;;;;;;;7.62;6.70;;;;;;;7.55;65.28;101191.61;1696102;84;21480;-83
2021/03/19 14:23:39;;;;;;;8.38;6.92;;;;;;;7.61;64.25;101186.61;1692589;83;21572;-83
2021/03/19 14:26:07;;;;;;;10.68;7.70;;;;;;;7.70;64.30;101180.57;1693781;83;21867;-83
2021/03/19 14:28:43;;;;;;;13.05;9.98;;;;;;;7.87;64.30;101183.67;1692946;83;21517;-83
2021/03/19 14:31:24;;;;;;;9.80;7.67;;;;;;;8.08;64.45;101183.95;1694563;84;21145;-82
2021/03/19 14:33:57;;;;;;;10.43;7.58;;;;;;;8.46;63.31;101180.39;1698894;84;21659;-83
2021/03/19 14:36:28;;;;;;;11.40;9.08;;;;;;;8.57;61.44;101179.03;1695651;83;21232;-83
2021/03/19 14:38:58;;;;;;;10.32;8.65;;;;;;;8.38;61.45;101178.65;1693940;84;21886;-81
2021/03/19 14:41:28;;;;;;;17.07;7.87;;;;;;;8.31;62.76;101179.01;1693609;84;21675;-82
2021/03/19 14:44:01;;;;;;;9.53;7.67;;;;;;;8.24;63.31;101177.14;1694082;84;21086;-83
2021/03/19 14:46:32;;;;;;;7.42;6.55;;;;;;;8.10;63.62;101180.86;1690173;82;21180;-80
2021/03/19 14:53:23;;;;;;;9.35;7.72;;;;;;;7.90;64.59;101175.33;1695314;84;21083;-80
2021/03/19 14:55:51;;;;;;;9.13;7.47;;;;;;;7.84;64.92;101179.94;1664864;85;21638;-83
2021/03/19 15:06:28;;;;;;;7.60;6.67;;;;;;;7.45;64.59;101181.30;1668925;84;21530;-83
2021/03/19 15:08:56;;;;;;;8.75;6.95;;;;;;;7.35;64.12;101188.62;1666827;85;21667;-82
2021/03/19 15:11:26;;;;;;;11.80;7.67;;;;;;;7.27;64.32;101183.41;1667015;85;21220;-81
2021/03/19 15:18:39;;;;;;;11.28;8.18;;;;;;;7.30;64.74;101180.70;1668216;85;21636;-85
2021/03/19 15:29:28;;;;;;;12.28;7.83;;;;;;;6.68;65.88;101189.37;1666226;83;21675;-82
2021/03/19 15:31:58;;;;;;;11.80;8.85;;;;;;;6.58;66.42;101194.97;1665843;85;21517;-82
2021/03/19 15:42:46;;;;;;;10.03;8.65;;;;;;;6.33;68.10;101201.12;1666557;84;21556;-83
2021/03/19 16:01:56;;;;;;;15.88;10.28;;;;;;;5.69;71.21;101227.20;1666275;85;21595;-83
2021/03/19 16:04:25;;;;;;;22.13;11.38;;;;;;;5.55;71.60;101225.56;1666755;85;21602;-82
2021/03/19 16:06:54;;;;;;;24.57;15.65;;;;;;;5.49;72.04;101223.69;1666237;84;21603;-81
2021/03/19 16:09:23;;;;;;;25.25;16.37;;;;;;;5.44;72.36;101224.28;1660863;84;21655;-81
2021/03/19 16:24:12;;;;;;;31.37;14.87;;;;;;;5.05;75.01;101224.78;1662095;83;21502;-83
2021/03/19 16:26:40;;;;;;;21.85;13.25;;;;;;;4.91;75.45;101233.42;1661740;84;21659;-83
2021/03/19 16:29:09;;;;;;;23.75;12.98;;;;;;;4.82;75.84;101236.28;1661399;85;21508;-83
2021/03/19 16:31:37;;;;;;;26.07;13.28;;;;;;;4.75;76.38;101239.50;1661056;85;21914;-84
2021/03/19 16:34:07;;;;;;;24.10;11.78;;;;;;;4.70;76.84;101237.97;1662098;84;21679;-83
2021/03/19 16:53:14;;;;;;;16.57;10.98;;;;;;;4.26;79.86;101249.66;1661181;84;21648;-82
2021/03/19 16:55:45;;;;;;;16.12;11.65;;;;;;;4.10;80.77;101253.14;1661685;85;21691;-82
2021/03/19 17:02:22;;;;;;;14.68;10.78;;;;;;;3.92;82.27;101263.97;1661309;85;21632;-82
2021/03/19 17:04:55;;;;;;;17.67;11.35;;;;;;;3.78;83.25;101264.80;1662371;84;21779;-82
2021/03/19 17:07:24;;;;;;;15.72;11.70;;;;;;;3.72;83.84;101270.11;1661463;84;21742;-82
2021/03/19 17:09:56;;;;;;;23.87;12.03;;;;;;;3.64;84.37;101269.02;1665441;84;21559;-81
2021/03/19 17:12:26;;;;;;;17.50;12.10;;;;;;;3.60;84.93;101270.02;1665770;85;21605;-81
2021/03/19 17:14:57;;;;;;;22.90;13.58;;;;;;;3.58;85.69;101285.03;1665920;85;21616;-81
2021/03/19 17:17:25;;;;;;;22.13;13.68;;;;;;;3.55;86.13;101281.27;1667363;85;21847;-81
2021/03/19 17:19:54;;;;;;;27.25;16.90;;;;;;;3.52;86.63;101283.92;1665771;85;21639;-82
2021/03/19 17:22:23;;;;;;;50.25;31.90;;;;;;;3.50;87.04;101284.41;1665415;85;21200;-82
2021/03/19 17:24:53;;;;;;;26.52;18.65;;;;;;;3.47;87.26;101287.91;1665237;85;21614;-83
2021/03/19 17:27:22;;;;;;;19.67;14.78;;;;;;;3.46;87.64;101286.66;1666814;85;21167;-82
2021/03/19 17:29:50;;;;;;;22.27;13.78;;;;;;;3.45;87.95;101287.09;1665890;85;21916;-83
2021/03/19 17:32:19;;;;;;;18.92;14.75;;;;;;;3.43;88.08;101295.28;1665491;85;21503;-83
2021/03/19 17:34:48;;;;;;;22.20;15.65;;;;;;;3.39;88.29;101285.97;1665483;85;21488;-82
2021/03/19 17:37:17;;;;;;;21.45;15.78;;;;;;;3.36;88.48;101297.60;1665765;85;21608;-81
2021/03/19 17:39:47;;;;;;;22.02;15.70;;;;;;;3.31;88.67;101299.89;1665431;85;21670;-82
2021/03/19 17:42:16;;;;;;;20.35;15.05;;;;;;;3.27;88.86;101299.56;1666065;85;21989;-82
2021/03/19 17:44:49;;;;;;;31.52;19.80;;;;;;;3.23;89.04;101303.92;1665657;85;21710;-83
2021/03/19 17:47:20;;;;;;;47.25;24.72;;;;;;;3.19;89.27;101300.59;1666717;85;21536;-83
2021/03/19 17:49:49;;;;;;;39.95;22.15;;;;;;;3.15;89.54;101301.58;1667433;85;21508;-82
2021/03/19 17:52:18;;;;;;;37.48;23.92;;;;;;;3.09;89.84;101304.73;1668416;85;21488;-82
2021/03/19 17:54:48;;;;;;;34.65;22.35;;;;;;;3.02;90.05;101300.63;1667632;85;21520;-83
2021/03/19 17:57:19;;;;;;;37.23;22.60;;;;;;;2.98;90.57;101301.58;1668020;85;21552;-83
2021/03/19 17:59:50;;;;;;;33.58;22.50;;;;;;;2.95;90.95;101310.19;1668813;85;21572;-83
2021/03/19 18:02:21;;;;;;;35.23;22.22;;;;;;;2.89;91.22;101309.50;1667666;85;21600;-83
2021/03/19 18:04:50;;;;;;;35.38;23.32;;;;;;;2.82;91.67;101313.08;1666281;85;21651;-82
2021/03/19 18:07:19;;;;;;;34.95;22.30;;;;;;;2.78;92.08;101312.73;1668046;85;21513;-83
2021/03/19 18:09:50;;;;;;;42.15;22.82;;;;;;;2.75;92.34;101317.94;1671267;85;21610;-82
2021/03/19 18:12:20;;;;;;;36.05;23.05;;;;;;;2.70;92.57;101319.34;1673655;85;21548;-83
2021/03/19 18:14:50;;;;;;;31.35;21.60;;;;;;;2.64;92.78;101319.49;1676244;84;21086;-82
2021/03/19 18:17:23;;;;;;;33.35;21.05;;;;;;;2.57;93.11;101322.63;1674348;85;21473;-81
2021/03/19 18:19:51;;;;;;;29.32;19.60;;;;;;;2.53;93.37;101331.69;1675659;84;21901;-82
2021/03/19 18:22:22;;;;;;;28.75;20.08;;;;;;;2.49;93.81;101328.81;1671775;84;21100;-82
2021/03/19 18:24:53;;;;;;;33.05;21.52;;;;;;;2.46;94.06;101332.26;1670501;85;21611;-82
2021/03/19 18:27:24;;;;;;;29.30;20.32;;;;;;;2.43;94.11;101331.05;1671625;84;21611;-83
2021/03/19 18:29:52;;;;;;;25.00;18.17;;;;;;;2.37;94.29;101332.89;1671183;85;21631;-83
2021/03/19 18:32:21;;;;;;;26.68;18.95;;;;;;;2.32;94.59;101336.01;1672472;84;21939;-84
2021/03/19 18:34:50;;;;;;;30.55;19.75;;;;;;;2.29;94.78;101341.20;1670520;85;21699;-84
2021/03/19 18:37:19;;;;;;;33.50;21.07;;;;;;;2.27;95.02;101345.05;1671209;84;21457;-84
2021/03/19 18:39:49;;;;;;;34.78;22.27;;;;;;;2.24;95.22;101344.27;1671767;84;21557;-84
2021/03/19 18:42:21;;;;;;;33.55;22.87;;;;;;;2.21;95.56;101351.59;1671439;83;21482;-84
2021/03/19 18:44:49;;;;;;;27.30;19.37;;;;;;;2.19;95.82;101346.95;1671786;84;21877;-83
2021/03/19 18:47:19;;;;;;;28.60;18.52;;;;;;;2.19;96.06;101349.94;1645033;85;21524;-83
2021/03/19 18:49:47;;;;;;;24.85;18.73;;;;;;;2.18;96.18;101355.92;1670789;84;21247;-83
2021/03/19 18:52:21;;;;;;;27.93;18.70;;;;;;;2.14;96.25;101352.16;1671285;84;21147;-84
2021/03/19 18:54:55;;;;;;;28.15;19.98;;;;;;;2.10;96.38;101347.98;1670944;84;21642;-82
2021/03/19 18:57:23;;;;;;;36.23;22.80;;;;;;;2.06;96.65;101351.91;1671008;84;21980;-82
2021/03/19 19:00:00;;;;;;;38.90;23.85;;;;;;;2.01;96.82;101349.89;1672896;84;21219;-82
2021/03/19 19:02:33;;;;;;;36.42;23.80;;;;;;;1.93;97.01;101347.91;1673121;84;21701;-82
2021/03/19 19:05:05;;;;;;;33.53;22.17;;;;;;;1.86;97.28;101346.33;1722534;79;21855;-82
2021/03/19 19:07:38;;;;;;;36.63;23.33;;;;;;;1.81;97.62;101357.95;1724884;82;21176;-82
2021/03/19 19:10:11;;;;;;;28.10;20.60;;;;;;;1.78;97.99;101361.00;1723474;82;22007;-82
2021/03/19 19:12:39;;;;;;;24.85;17.27;;;;;;;1.77;98.45;101361.86;1723550;82;21548;-82
2021/03/19 19:15:10;;;;;;;21.23;16.25;;;;;;;1.77;98.92;101360.59;1725554;82;21626;-83
2021/03/19 19:17:40;;;;;;;23.75;17.02;;;;;;;1.80;99.39;101369.05;1725203;82;21656;-83
2021/03/19 19:20:16;;;;;;;23.75;16.45;;;;;;;1.82;99.71;101363.92;1725779;82;21554;-82
2021/03/19 19:22:44;;;;;;;24.50;16.32;;;;;;;1.84;99.84;101362.16;1725101;82;21599;-82
2021/03/19 19:25:13;;;;;;;23.10;16.70;;;;;;;1.84;99.88;101366.00;1725141;82;21612;-83
2021/03/19 19:27:43;;;;;;;25.95;16.20;;;;;;;1.85;99.99;101365.95;1725336;82;21716;-82
2021/03/19 19:30:25;;;;;;;30.05;17.35;;;;;;;1.85;99.95;101368.52;1724036;82;21062;-81
2021/03/19 19:32:54;;;;;;;25.90;17.67;;;;;;;1.86;99.87;101370.64;1724629;82;21547;-81
2021/03/19 19:35:29;;;;;;;23.90;17.37;;;;;;;1.87;100.00;101381.30;1723464;82;21777;-82
2021/03/19 19:38:01;;;;;;;34.38;22.48;;;;;;;1.90;100.00;101382.52;1726550;82;21287;-82
2021/03/19 19:40:33;;;;;;;35.43;23.02;;;;;;;1.93;100.00;101381.17;1723541;82;21576;-81
2021/03/19 19:43:03;;;;;;;32.33;20.57;;;;;;;1.95;100.00;101389.66;1724139;82;21081;-82
2021/03/19 19:45:36;;;;;;;30.80;20.32;;;;;;;1.94;99.86;101386.28;1725178;82;21124;-82
2021/03/19 19:48:06;;;;;;;30.32;19.75;;;;;;;1.92;99.63;101385.45;1724264;82;21492;-82
2021/03/19 19:50:40;;;;;;;29.05;19.90;;;;;;;1.87;99.59;101380.86;1725780;82;21587;-82
2021/03/19 19:53:14;;;;;;;29.10;18.98;;;;;;;1.85;99.63;101390.73;1723197;82;21619;-82
2021/03/19 19:55:43;;;;;;;28.80;19.30;;;;;;;1.84;99.62;101389.87;1724266;82;21473;-82
2021/03/19 19:58:15;;;;;;;28.25;19.57;;;;;;;1.78;99.44;101386.59;1723266;82;21104;-82
2021/03/19 20:00:45;;;;;;;28.17;18.48;;;;;;;1.71;99.29;101389.69;1720732;82;21882;-82
2021/03/19 20:03:13;;;;;;;35.43;21.30;;;;;;;1.65;99.29;101391.52;1723466;82;21473;-82
2021/03/19 20:05:44;;;;;;;32.83;20.55;;;;;;;1.58;99.35;101390.78;1730508;82;21500;-82
2021/03/19 20:08:16;;;;;;;28.60;18.50;;;;;;;1.54;99.62;101400.64;1730919;82;21476;-82
2021/03/19 20:10:47;;;;;;;30.45;20.15;;;;;;;1.54;99.95;101398.09;1734103;82;21564;-81
2021/03/19 20:13:18;;;;;;;25.23;18.55;;;;;;;1.51;100.00;101398.14;1731228;82;21819;-82
2021/03/19 20:15:46;;;;;;;27.00;17.98;;;;;;;1.49;100.00;101403.30;1731242;82;21472;-82
2021/03/19 20:18:33;;;;;;;31.60;20.65;;;;;;;1.46;100.00;101399.52;1730928;82;21595;-82
2021/03/19 20:21:10;;;;;;;47.73;26.55;;;;;;;1.43;100.00;101404.69;1730494;82;21136;-81
2021/03/19 20:23:39;;;;;;;35.08;21.55;;;;;;;1.40;100.00;101404.73;1730996;82;21646;-81
2021/03/19 20:26:07;;;;;;;31.12;20.45;;;;;;;1.39;100.00;101405.59;1731061;82;21947;-81